sensor_id;sensor_type;location;lat;lon;timestamp;temperature;humidity
60723;DHT22;46574;52.818;6.516;2023-11-18T00:00:51;3.60;99.90
60723;DHT22;46574;52.818;6.516;2023-11-18T00:03:17;3.60;99.90
60723;DHT22;46574;52.818;6.516;2023-11-18T00:05:43;3.60;99.90
60723;DHT22;46574;52.818;6.516;2023-11-18T00:08:08;3.60;99.90
60723;DHT22;46574;52.818;6.516;2023-11-18T00:10:34;3.60;99.90
60723;DHT22;46574;52.818;6.516;2023-11-18T00:12:59;3.50;99.90
60723;DHT22;46574;52.818;6.516;2023-11-18T00:15:27;3.50;99.90
60723;DHT22;46574;52.818;6.516;2023-11-18T00:17:52;3.40;99.90
60723;DHT22;46574;52.818;6.516;2023-11-18T00:20:18;3.40;99.90
60723;DHT22;46574;52.818;6.516;2023-11-18T00:22:45;3.40;99.90
60723;DHT22;46574;52.818;6.516;2023-11-18T00:25:11;3.40;99.90
60723;DHT22;46574;52.818;6.516;2023-11-18T00:27:39;3.40;99.90
60723;DHT22;46574;52.818;6.516;2023-11-18T00:30:06;3.30;99.90
60723;DHT22;46574;52.818;6.516;2023-11-18T00:32:36;3.30;99.90
60723;DHT22;46574;52.818;6.516;2023-11-18T00:35:02;3.20;99.90
60723;DHT22;46574;52.818;6.516;2023-11-18T00:37:30;3.30;99.90
60723;DHT22;46574;52.818;6.516;2023-11-18T00:39:57;3.20;99.90
60723;DHT22;46574;52.818;6.516;2023-11-18T00:42:22;3.20;99.90
60723;DHT22;46574;52.818;6.516;2023-11-18T00:44:48;3.20;99.90
60723;DHT22;46574;52.818;6.516;2023-11-18T00:47:13;3.20;99.90
60723;DHT22;46574;52.818;6.516;2023-11-18T00:49:39;3.20;99.90
60723;DHT22;46574;52.818;6.516;2023-11-18T00:52:05;3.10;99.90
60723;DHT22;46574;52.818;6.516;2023-11-18T00:54:31;3.10;99.90
60723;DHT22;46574;52.818;6.516;2023-11-18T00:56:57;3.10;99.90
60723;DHT22;46574;52.818;6.516;2023-11-18T00:59:24;3.10;99.90
60723;DHT22;46574;52.818;6.516;2023-11-18T01:01:49;3.10;99.90
60723;DHT22;46574;52.818;6.516;2023-11-18T01:04:15;3.10;99.90
60723;DHT22;46574;52.818;6.516;2023-11-18T01:06:42;3.10;99.90
60723;DHT22;46574;52.818;6.516;2023-11-18T01:09:08;3.10;99.90
60723;DHT22;46574;52.818;6.516;2023-11-18T01:11:35;3.00;99.90
60723;DHT22;46574;52.818;6.516;2023-11-18T01:14:01;3.10;99.90
60723;DHT22;46574;52.818;6.516;2023-11-18T01:16:27;3.00;99.90
60723;DHT22;46574;52.818;6.516;2023-11-18T01:18:54;3.00;99.90
60723;DHT22;46574;52.818;6.516;2023-11-18T01:21:20;3.00;99.90
60723;DHT22;46574;52.818;6.516;2023-11-18T01:23:46;3.00;99.90
60723;DHT22;46574;52.818;6.516;2023-11-18T01:26:12;3.00;99.90
60723;DHT22;46574;52.818;6.516;2023-11-18T01:28:38;3.00;99.90
60723;DHT22;46574;52.818;6.516;2023-11-18T01:31:06;3.00;99.90
60723;DHT22;46574;52.818;6.516;2023-11-18T01:33:39;3.00;99.90
60723;DHT22;46574;52.818;6.516;2023-11-18T01:36:06;3.00;99.90
60723;DHT22;46574;52.818;6.516;2023-11-18T01:38:34;3.00;99.90
60723;DHT22;46574;52.818;6.516;2023-11-18T01:41:00;3.00;99.90
60723;DHT22;46574;52.818;6.516;2023-11-18T01:43:28;3.00;99.90
60723;DHT22;46574;52.818;6.516;2023-11-18T01:45:55;3.00;99.90
60723;DHT22;46574;52.818;6.516;2023-11-18T01:48:23;3.00;99.90
60723;DHT22;46574;52.818;6.516;2023-11-18T01:50:51;3.00;99.90
60723;DHT22;46574;52.818;6.516;2023-11-18T01:53:17;3.10;99.90
60723;DHT22;46574;52.818;6.516;2023-11-18T01:55:43;3.10;99.90
60723;DHT22;46574;52.818;6.516;2023-11-18T01:58:08;3.10;99.90
60723;DHT22;46574;52.818;6.516;2023-11-18T02:00:45;3.10;99.90
60723;DHT22;46574;52.818;6.516;2023-11-18T02:03:12;3.10;99.90
60723;DHT22;46574;52.818;6.516;2023-11-18T02:05:38;3.10;99.90
60723;DHT22;46574;52.818;6.516;2023-11-18T02:08:05;3.10;99.90
60723;DHT22;46574;52.818;6.516;2023-11-18T02:10:37;3.10;99.90
60723;DHT22;46574;52.818;6.516;2023-11-18T02:13:10;3.20;99.90
60723;DHT22;46574;52.818;6.516;2023-11-18T02:15:38;3.20;99.90
60723;DHT22;46574;52.818;6.516;2023-11-18T02:18:06;3.20;99.90
60723;DHT22;46574;52.818;6.516;2023-11-18T02:20:35;3.20;99.90
60723;DHT22;46574;52.818;6.516;2023-11-18T02:23:01;3.20;99.90
60723;DHT22;46574;52.818;6.516;2023-11-18T02:25:28;3.30;99.90
60723;DHT22;46574;52.818;6.516;2023-11-18T02:27:55;3.30;99.90
60723;DHT22;46574;52.818;6.516;2023-11-18T02:30:21;3.30;99.90
60723;DHT22;46574;52.818;6.516;2023-11-18T02:37:55;3.40;99.90
60723;DHT22;46574;52.818;6.516;2023-11-18T02:40:41;3.30;99.90
60723;DHT22;46574;52.818;6.516;2023-11-18T02:43:09;3.40;99.90
60723;DHT22;46574;52.818;6.516;2023-11-18T02:45:36;3.40;99.90
60723;DHT22;46574;52.818;6.516;2023-11-18T02:48:03;3.40;99.90
60723;DHT22;46574;52.818;6.516;2023-11-18T02:50:30;3.40;99.90
60723;DHT22;46574;52.818;6.516;2023-11-18T02:52:55;3.50;99.90
60723;DHT22;46574;52.818;6.516;2023-11-18T02:55:21;3.50;99.90
60723;DHT22;46574;52.818;6.516;2023-11-18T02:57:48;3.50;99.90
60723;DHT22;46574;52.818;6.516;2023-11-18T03:00:15;3.50;99.90
60723;DHT22;46574;52.818;6.516;2023-11-18T03:02:48;3.50;99.90
60723;DHT22;46574;52.818;6.516;2023-11-18T03:05:17;3.60;99.90
60723;DHT22;46574;52.818;6.516;2023-11-18T03:07:49;3.60;99.90
60723;DHT22;46574;52.818;6.516;2023-11-18T03:10:16;3.60;99.90
60723;DHT22;46574;52.818;6.516;2023-11-18T03:12:48;3.60;99.90
60723;DHT22;46574;52.818;6.516;2023-11-18T03:15:15;3.70;99.90
60723;DHT22;46574;52.818;6.516;2023-11-18T03:17:44;3.70;99.90
60723;DHT22;46574;52.818;6.516;2023-11-18T03:20:11;3.70;99.90
60723;DHT22;46574;52.818;6.516;2023-11-18T03:22:40;3.80;99.90
60723;DHT22;46574;52.818;6.516;2023-11-18T03:25:06;3.80;99.90
60723;DHT22;46574;52.818;6.516;2023-11-18T03:27:33;3.90;99.90
60723;DHT22;46574;52.818;6.516;2023-11-18T03:29:59;3.90;99.90
60723;DHT22;46574;52.818;6.516;2023-11-18T03:32:24;3.90;99.90
60723;DHT22;46574;52.818;6.516;2023-11-18T03:34:50;4.00;99.90
60723;DHT22;46574;52.818;6.516;2023-11-18T03:37:15;4.00;99.90
60723;DHT22;46574;52.818;6.516;2023-11-18T03:39:41;4.00;99.90
60723;DHT22;46574;52.818;6.516;2023-11-18T03:42:07;4.10;99.90
60723;DHT22;46574;52.818;6.516;2023-11-18T03:44:33;4.20;99.90
60723;DHT22;46574;52.818;6.516;2023-11-18T03:46:59;4.20;99.90
60723;DHT22;46574;52.818;6.516;2023-11-18T03:49:25;4.20;99.90
60723;DHT22;46574;52.818;6.516;2023-11-18T03:51:50;4.20;99.90
60723;DHT22;46574;52.818;6.516;2023-11-18T03:54:16;4.20;99.90
60723;DHT22;46574;52.818;6.516;2023-11-18T03:56:42;4.30;99.90
60723;DHT22;46574;52.818;6.516;2023-11-18T03:59:08;4.30;99.90
60723;DHT22;46574;52.818;6.516;2023-11-18T04:01:34;4.30;99.90
60723;DHT22;46574;52.818;6.516;2023-11-18T04:04:00;4.40;99.90
60723;DHT22;46574;52.818;6.516;2023-11-18T04:06:26;4.40;99.90
60723;DHT22;46574;52.818;6.516;2023-11-18T04:08:51;4.40;99.90
60723;DHT22;46574;52.818;6.516;2023-11-18T04:11:17;4.50;99.90
60723;DHT22;46574;52.818;6.516;2023-11-18T04:13:44;4.50;99.90
60723;DHT22;46574;52.818;6.516;2023-11-18T04:16:13;4.50;99.90
60723;DHT22;46574;52.818;6.516;2023-11-18T04:18:41;4.60;99.90
60723;DHT22;46574;52.818;6.516;2023-11-18T04:21:07;4.60;99.90
60723;DHT22;46574;52.818;6.516;2023-11-18T04:23:40;4.60;99.90
60723;DHT22;46574;52.818;6.516;2023-11-18T04:26:07;4.60;99.90
60723;DHT22;46574;52.818;6.516;2023-11-18T04:28:33;4.60;99.90
60723;DHT22;46574;52.818;6.516;2023-11-18T04:30:59;4.60;99.90
60723;DHT22;46574;52.818;6.516;2023-11-18T04:33:26;4.60;99.90
60723;DHT22;46574;52.818;6.516;2023-11-18T04:35:52;4.60;99.90
60723;DHT22;46574;52.818;6.516;2023-11-18T04:38:21;4.70;99.90
60723;DHT22;46574;52.818;6.516;2023-11-18T04:40:47;4.70;99.90
60723;DHT22;46574;52.818;6.516;2023-11-18T04:43:12;4.70;99.90
60723;DHT22;46574;52.818;6.516;2023-11-18T04:45:38;4.70;99.90
60723;DHT22;46574;52.818;6.516;2023-11-18T04:48:04;4.70;99.90
60723;DHT22;46574;52.818;6.516;2023-11-18T04:50:31;4.80;99.90
60723;DHT22;46574;52.818;6.516;2023-11-18T04:52:58;4.80;99.90
60723;DHT22;46574;52.818;6.516;2023-11-18T04:55:23;4.80;99.90
60723;DHT22;46574;52.818;6.516;2023-11-18T04:57:51;4.80;99.90
60723;DHT22;46574;52.818;6.516;2023-11-18T05:00:17;4.80;99.90
60723;DHT22;46574;52.818;6.516;2023-11-18T05:02:45;4.90;99.90
60723;DHT22;46574;52.818;6.516;2023-11-18T05:05:15;4.90;99.90
60723;DHT22;46574;52.818;6.516;2023-11-18T05:07:41;4.90;99.90
60723;DHT22;46574;52.818;6.516;2023-11-18T05:10:08;4.90;99.90
60723;DHT22;46574;52.818;6.516;2023-11-18T05:12:34;4.90;99.90
60723;DHT22;46574;52.818;6.516;2023-11-18T05:15:00;5.00;99.90
60723;DHT22;46574;52.818;6.516;2023-11-18T05:17:26;5.00;99.90
60723;DHT22;46574;52.818;6.516;2023-11-18T05:19:53;5.00;99.90
60723;DHT22;46574;52.818;6.516;2023-11-18T05:22:19;5.00;99.90
60723;DHT22;46574;52.818;6.516;2023-11-18T05:24:46;5.10;99.90
60723;DHT22;46574;52.818;6.516;2023-11-18T05:27:13;5.10;99.90
60723;DHT22;46574;52.818;6.516;2023-11-18T05:29:39;5.10;99.90
60723;DHT22;46574;52.818;6.516;2023-11-18T05:32:07;5.20;99.90
60723;DHT22;46574;52.818;6.516;2023-11-18T05:34:33;5.10;99.90
60723;DHT22;46574;52.818;6.516;2023-11-18T05:37:01;5.20;99.90
60723;DHT22;46574;52.818;6.516;2023-11-18T05:39:27;5.20;99.90
60723;DHT22;46574;52.818;6.516;2023-11-18T05:41:57;5.20;99.90
60723;DHT22;46574;52.818;6.516;2023-11-18T05:44:23;5.20;99.90
60723;DHT22;46574;52.818;6.516;2023-11-18T05:46:59;5.20;99.90
60723;DHT22;46574;52.818;6.516;2023-11-18T05:49:24;5.20;99.90
60723;DHT22;46574;52.818;6.516;2023-11-18T05:51:50;5.20;99.90
60723;DHT22;46574;52.818;6.516;2023-11-18T05:54:17;5.20;99.90
60723;DHT22;46574;52.818;6.516;2023-11-18T05:56:43;5.20;99.90
60723;DHT22;46574;52.818;6.516;2023-11-18T05:59:09;5.20;99.90
60723;DHT22;46574;52.818;6.516;2023-11-18T06:01:36;5.20;99.90
60723;DHT22;46574;52.818;6.516;2023-11-18T06:04:03;5.30;99.90
60723;DHT22;46574;52.818;6.516;2023-11-18T06:06:29;5.20;99.90
60723;DHT22;46574;52.818;6.516;2023-11-18T06:08:56;5.20;99.90
60723;DHT22;46574;52.818;6.516;2023-11-18T06:11:24;5.20;99.90
60723;DHT22;46574;52.818;6.516;2023-11-18T06:13:51;5.20;99.90
60723;DHT22;46574;52.818;6.516;2023-11-18T06:16:19;5.20;99.90
60723;DHT22;46574;52.818;6.516;2023-11-18T06:18:46;5.30;99.90
60723;DHT22;46574;52.818;6.516;2023-11-18T06:21:17;5.30;99.90
60723;DHT22;46574;52.818;6.516;2023-11-18T06:23:44;5.30;99.90
60723;DHT22;46574;52.818;6.516;2023-11-18T06:26:11;5.30;99.90
60723;DHT22;46574;52.818;6.516;2023-11-18T06:28:41;5.30;99.90
60723;DHT22;46574;52.818;6.516;2023-11-18T06:31:07;5.30;99.90
60723;DHT22;46574;52.818;6.516;2023-11-18T06:36:05;5.30;99.90
60723;DHT22;46574;52.818;6.516;2023-11-18T06:38:32;5.30;99.90
60723;DHT22;46574;52.818;6.516;2023-11-18T06:41:00;5.30;99.90
60723;DHT22;46574;52.818;6.516;2023-11-18T06:43:28;5.30;99.90
60723;DHT22;46574;52.818;6.516;2023-11-18T06:46:01;5.40;99.90
60723;DHT22;46574;52.818;6.516;2023-11-18T06:48:27;5.30;99.90
60723;DHT22;46574;52.818;6.516;2023-11-18T06:50:53;5.30;99.90
60723;DHT22;46574;52.818;6.516;2023-11-18T06:53:19;5.30;99.90
60723;DHT22;46574;52.818;6.516;2023-11-18T06:55:45;5.30;99.90
60723;DHT22;46574;52.818;6.516;2023-11-18T06:58:11;5.30;99.90
60723;DHT22;46574;52.818;6.516;2023-11-18T07:00:38;5.30;99.90
60723;DHT22;46574;52.818;6.516;2023-11-18T07:03:04;5.30;99.90
60723;DHT22;46574;52.818;6.516;2023-11-18T07:05:31;5.40;99.90
60723;DHT22;46574;52.818;6.516;2023-11-18T07:07:56;5.30;99.90
60723;DHT22;46574;52.818;6.516;2023-11-18T07:10:22;5.30;99.90
60723;DHT22;46574;52.818;6.516;2023-11-18T07:12:48;5.40;99.90
60723;DHT22;46574;52.818;6.516;2023-11-18T07:15:14;5.40;99.90
60723;DHT22;46574;52.818;6.516;2023-11-18T07:17:40;5.40;99.90
60723;DHT22;46574;52.818;6.516;2023-11-18T07:20:06;5.40;99.90
60723;DHT22;46574;52.818;6.516;2023-11-18T07:22:32;5.50;99.90
60723;DHT22;46574;52.818;6.516;2023-11-18T07:24:58;5.40;99.90
60723;DHT22;46574;52.818;6.516;2023-11-18T07:27:23;5.50;99.90
60723;DHT22;46574;52.818;6.516;2023-11-18T07:29:49;5.50;99.90
60723;DHT22;46574;52.818;6.516;2023-11-18T07:32:14;5.50;99.90
60723;DHT22;46574;52.818;6.516;2023-11-18T07:34:40;5.50;99.90
60723;DHT22;46574;52.818;6.516;2023-11-18T07:37:06;5.50;99.90
60723;DHT22;46574;52.818;6.516;2023-11-18T07:39:34;5.50;99.90
60723;DHT22;46574;52.818;6.516;2023-11-18T07:42:14;5.60;99.90
60723;DHT22;46574;52.818;6.516;2023-11-18T07:44:41;5.60;99.90
60723;DHT22;46574;52.818;6.516;2023-11-18T07:47:06;5.50;99.90
60723;DHT22;46574;52.818;6.516;2023-11-18T07:49:35;5.50;99.90
60723;DHT22;46574;52.818;6.516;2023-11-18T07:52:04;5.50;99.90
60723;DHT22;46574;52.818;6.516;2023-11-18T07:54:31;5.60;99.90
60723;DHT22;46574;52.818;6.516;2023-11-18T07:56:56;5.60;99.90
60723;DHT22;46574;52.818;6.516;2023-11-18T07:59:22;5.60;99.90
60723;DHT22;46574;52.818;6.516;2023-11-18T08:01:49;5.60;99.90
60723;DHT22;46574;52.818;6.516;2023-11-18T08:04:15;5.60;99.90
60723;DHT22;46574;52.818;6.516;2023-11-18T08:06:42;5.60;99.90
60723;DHT22;46574;52.818;6.516;2023-11-18T08:09:11;5.60;99.90
60723;DHT22;46574;52.818;6.516;2023-11-18T08:11:40;5.60;99.90
60723;DHT22;46574;52.818;6.516;2023-11-18T08:14:09;5.60;99.90
60723;DHT22;46574;52.818;6.516;2023-11-18T08:16:35;5.60;99.90
60723;DHT22;46574;52.818;6.516;2023-11-18T08:19:03;5.70;99.90
60723;DHT22;46574;52.818;6.516;2023-11-18T08:21:31;5.60;99.90
60723;DHT22;46574;52.818;6.516;2023-11-18T08:23:56;5.60;99.90
60723;DHT22;46574;52.818;6.516;2023-11-18T08:26:25;5.70;99.90
60723;DHT22;46574;52.818;6.516;2023-11-18T08:28:51;5.70;99.90
60723;DHT22;46574;52.818;6.516;2023-11-18T08:31:17;5.80;99.90
60723;DHT22;46574;52.818;6.516;2023-11-18T08:33:43;5.70;99.90
60723;DHT22;46574;52.818;6.516;2023-11-18T08:36:09;5.70;99.90
60723;DHT22;46574;52.818;6.516;2023-11-18T08:38:35;5.80;99.90
60723;DHT22;46574;52.818;6.516;2023-11-18T08:41:01;5.80;99.90
60723;DHT22;46574;52.818;6.516;2023-11-18T08:43:27;5.80;99.90
60723;DHT22;46574;52.818;6.516;2023-11-18T08:45:55;5.80;99.90
60723;DHT22;46574;52.818;6.516;2023-11-18T08:48:22;5.80;99.90
60723;DHT22;46574;52.818;6.516;2023-11-18T08:50:48;5.80;99.90
60723;DHT22;46574;52.818;6.516;2023-11-18T08:53:14;5.80;99.90
60723;DHT22;46574;52.818;6.516;2023-11-18T08:55:44;5.90;99.90
60723;DHT22;46574;52.818;6.516;2023-11-18T08:58:22;5.90;99.90
60723;DHT22;46574;52.818;6.516;2023-11-18T09:00:56;5.90;99.90
60723;DHT22;46574;52.818;6.516;2023-11-18T09:03:29;5.90;99.90
60723;DHT22;46574;52.818;6.516;2023-11-18T09:06:05;5.90;99.90
60723;DHT22;46574;52.818;6.516;2023-11-18T09:08:36;5.90;99.90
60723;DHT22;46574;52.818;6.516;2023-11-18T09:11:08;5.90;99.90
60723;DHT22;46574;52.818;6.516;2023-11-18T09:13:37;5.90;99.90
60723;DHT22;46574;52.818;6.516;2023-11-18T09:16:05;5.90;99.90
60723;DHT22;46574;52.818;6.516;2023-11-18T09:18:42;5.90;99.90
60723;DHT22;46574;52.818;6.516;2023-11-18T09:21:11;5.90;99.90
60723;DHT22;46574;52.818;6.516;2023-11-18T09:23:50;5.90;99.90
60723;DHT22;46574;52.818;6.516;2023-11-18T09:26:16;5.90;99.90
60723;DHT22;46574;52.818;6.516;2023-11-18T09:28:42;5.90;99.90
60723;DHT22;46574;52.818;6.516;2023-11-18T09:31:11;5.90;99.90
60723;DHT22;46574;52.818;6.516;2023-11-18T09:33:38;5.90;99.90
60723;DHT22;46574;52.818;6.516;2023-11-18T09:36:08;5.90;99.90
60723;DHT22;46574;52.818;6.516;2023-11-18T09:38:41;5.90;99.90
60723;DHT22;46574;52.818;6.516;2023-11-18T09:41:08;5.90;99.90
60723;DHT22;46574;52.818;6.516;2023-11-18T09:43:44;6.00;99.90
60723;DHT22;46574;52.818;6.516;2023-11-18T09:46:19;6.00;99.90
60723;DHT22;46574;52.818;6.516;2023-11-18T09:51:23;6.00;99.90
60723;DHT22;46574;52.818;6.516;2023-11-18T09:53:51;6.10;99.90
60723;DHT22;46574;52.818;6.516;2023-11-18T09:56:51;6.00;99.90
60723;DHT22;46574;52.818;6.516;2023-11-18T09:59:32;6.10;99.90
60723;DHT22;46574;52.818;6.516;2023-11-18T10:02:03;6.10;99.90
60723;DHT22;46574;52.818;6.516;2023-11-18T10:04:30;6.10;99.90
60723;DHT22;46574;52.818;6.516;2023-11-18T10:06:57;6.10;99.90
60723;DHT22;46574;52.818;6.516;2023-11-18T10:09:24;6.10;99.90
60723;DHT22;46574;52.818;6.516;2023-11-18T10:12:07;6.10;99.90
60723;DHT22;46574;52.818;6.516;2023-11-18T10:14:36;6.10;99.90
60723;DHT22;46574;52.818;6.516;2023-11-18T10:17:08;6.10;99.90
60723;DHT22;46574;52.818;6.516;2023-11-18T10:19:58;6.10;99.90
60723;DHT22;46574;52.818;6.516;2023-11-18T10:22:38;6.10;99.90
60723;DHT22;46574;52.818;6.516;2023-11-18T10:25:04;6.10;99.90
60723;DHT22;46574;52.818;6.516;2023-11-18T10:27:31;6.20;99.90
60723;DHT22;46574;52.818;6.516;2023-11-18T10:30:06;6.20;99.90
60723;DHT22;46574;52.818;6.516;2023-11-18T10:33:00;6.20;99.90
60723;DHT22;46574;52.818;6.516;2023-11-18T10:35:34;6.20;99.90
60723;DHT22;46574;52.818;6.516;2023-11-18T10:38:04;6.20;99.90
60723;DHT22;46574;52.818;6.516;2023-11-18T10:40:33;6.20;99.90
60723;DHT22;46574;52.818;6.516;2023-11-18T10:43:05;6.20;99.90
60723;DHT22;46574;52.818;6.516;2023-11-18T10:45:36;6.30;99.90
60723;DHT22;46574;52.818;6.516;2023-11-18T10:48:07;6.20;99.90
60723;DHT22;46574;52.818;6.516;2023-11-18T10:50:34;6.30;99.90
60723;DHT22;46574;52.818;6.516;2023-11-18T10:53:00;6.20;99.90
60723;DHT22;46574;52.818;6.516;2023-11-18T10:55:39;6.30;99.90
60723;DHT22;46574;52.818;6.516;2023-11-18T10:58:06;6.30;99.90
60723;DHT22;46574;52.818;6.516;2023-11-18T11:00:51;6.30;99.90
60723;DHT22;46574;52.818;6.516;2023-11-18T11:03:21;6.30;99.90
60723;DHT22;46574;52.818;6.516;2023-11-18T11:05:50;6.30;99.90
60723;DHT22;46574;52.818;6.516;2023-11-18T11:08:18;6.30;99.90
60723;DHT22;46574;52.818;6.516;2023-11-18T11:10:46;6.30;99.90
60723;DHT22;46574;52.818;6.516;2023-11-18T11:13:16;6.30;99.90
60723;DHT22;46574;52.818;6.516;2023-11-18T11:15:44;6.30;99.90
60723;DHT22;46574;52.818;6.516;2023-11-18T11:18:12;6.30;99.90
60723;DHT22;46574;52.818;6.516;2023-11-18T11:21:21;6.30;99.90
60723;DHT22;46574;52.818;6.516;2023-11-18T11:24:11;6.30;99.90
60723;DHT22;46574;52.818;6.516;2023-11-18T11:29:27;6.30;99.90
60723;DHT22;46574;52.818;6.516;2023-11-18T11:32:23;6.30;99.90
60723;DHT22;46574;52.818;6.516;2023-11-18T11:34:55;6.30;99.90
60723;DHT22;46574;52.818;6.516;2023-11-18T11:37:25;6.30;99.90
60723;DHT22;46574;52.818;6.516;2023-11-18T11:39:55;6.30;99.90
60723;DHT22;46574;52.818;6.516;2023-11-18T11:42:23;6.40;99.90
60723;DHT22;46574;52.818;6.516;2023-11-18T11:44:49;6.40;99.90
60723;DHT22;46574;52.818;6.516;2023-11-18T11:47:18;6.40;99.90
60723;DHT22;46574;52.818;6.516;2023-11-18T11:49:55;6.40;99.90
60723;DHT22;46574;52.818;6.516;2023-11-18T11:52:33;6.40;99.90
60723;DHT22;46574;52.818;6.516;2023-11-18T11:55:12;6.40;99.90
60723;DHT22;46574;52.818;6.516;2023-11-18T11:57:41;6.40;99.90
60723;DHT22;46574;52.818;6.516;2023-11-18T12:00:10;6.50;99.90
60723;DHT22;46574;52.818;6.516;2023-11-18T12:02:50;6.50;99.90
60723;DHT22;46574;52.818;6.516;2023-11-18T12:05:17;6.50;99.90
60723;DHT22;46574;52.818;6.516;2023-11-18T12:07:45;6.50;99.90
60723;DHT22;46574;52.818;6.516;2023-11-18T12:10:12;6.50;99.90
60723;DHT22;46574;52.818;6.516;2023-11-18T12:12:40;6.40;99.90
60723;DHT22;46574;52.818;6.516;2023-11-18T12:15:07;6.40;99.90
60723;DHT22;46574;52.818;6.516;2023-11-18T12:20:51;6.40;99.90
60723;DHT22;46574;52.818;6.516;2023-11-18T12:23:20;6.50;99.90
60723;DHT22;46574;52.818;6.516;2023-11-18T12:25:51;6.50;99.90
60723;DHT22;46574;52.818;6.516;2023-11-18T12:28:27;6.40;99.90
60723;DHT22;46574;52.818;6.516;2023-11-18T12:30:54;6.40;99.90
60723;DHT22;46574;52.818;6.516;2023-11-18T12:33:24;6.40;99.90
60723;DHT22;46574;52.818;6.516;2023-11-18T12:38:45;6.40;99.90
60723;DHT22;46574;52.818;6.516;2023-11-18T12:41:38;6.50;99.90
60723;DHT22;46574;52.818;6.516;2023-11-18T12:44:15;6.40;99.90
60723;DHT22;46574;52.818;6.516;2023-11-18T12:47:03;6.40;99.90
60723;DHT22;46574;52.818;6.516;2023-11-18T12:49:41;6.40;99.90
60723;DHT22;46574;52.818;6.516;2023-11-18T12:52:11;6.40;99.90
60723;DHT22;46574;52.818;6.516;2023-11-18T12:54:41;6.40;99.90
60723;DHT22;46574;52.818;6.516;2023-11-18T12:57:12;6.40;99.90
60723;DHT22;46574;52.818;6.516;2023-11-18T12:59:41;6.50;99.90
60723;DHT22;46574;52.818;6.516;2023-11-18T13:02:11;6.50;99.90
60723;DHT22;46574;52.818;6.516;2023-11-18T13:04:45;6.50;99.90
60723;DHT22;46574;52.818;6.516;2023-11-18T13:07:16;6.50;99.90
60723;DHT22;46574;52.818;6.516;2023-11-18T13:09:47;6.50;99.90
60723;DHT22;46574;52.818;6.516;2023-11-18T13:12:14;6.50;99.90
60723;DHT22;46574;52.818;6.516;2023-11-18T13:14:42;6.50;99.90
60723;DHT22;46574;52.818;6.516;2023-11-18T13:17:15;6.60;99.90
60723;DHT22;46574;52.818;6.516;2023-11-18T13:19:42;6.50;99.90
60723;DHT22;46574;52.818;6.516;2023-11-18T13:22:09;6.60;99.90
60723;DHT22;46574;52.818;6.516;2023-11-18T13:24:38;6.50;99.90
60723;DHT22;46574;52.818;6.516;2023-11-18T13:27:08;6.60;99.90
60723;DHT22;46574;52.818;6.516;2023-11-18T13:29:39;6.60;99.90
60723;DHT22;46574;52.818;6.516;2023-11-18T13:32:05;6.60;99.90
60723;DHT22;46574;52.818;6.516;2023-11-18T13:34:33;6.60;99.90
60723;DHT22;46574;52.818;6.516;2023-11-18T13:37:06;6.70;99.90
60723;DHT22;46574;52.818;6.516;2023-11-18T13:39:35;6.70;99.90
60723;DHT22;46574;52.818;6.516;2023-11-18T13:42:23;6.70;99.90
60723;DHT22;46574;52.818;6.516;2023-11-18T13:44:50;6.70;99.90
60723;DHT22;46574;52.818;6.516;2023-11-18T13:47:17;6.70;99.90
60723;DHT22;46574;52.818;6.516;2023-11-18T13:49:43;6.70;99.90
60723;DHT22;46574;52.818;6.516;2023-11-18T13:52:09;6.70;99.90
60723;DHT22;46574;52.818;6.516;2023-11-18T13:54:40;6.80;99.90
60723;DHT22;46574;52.818;6.516;2023-11-18T13:57:07;6.80;99.90
60723;DHT22;46574;52.818;6.516;2023-11-18T13:59:33;6.80;99.90
60723;DHT22;46574;52.818;6.516;2023-11-18T14:02:00;6.80;99.90
60723;DHT22;46574;52.818;6.516;2023-11-18T14:04:30;6.80;99.90
60723;DHT22;46574;52.818;6.516;2023-11-18T14:06:58;6.80;99.90
60723;DHT22;46574;52.818;6.516;2023-11-18T14:09:25;6.80;99.90
60723;DHT22;46574;52.818;6.516;2023-11-18T14:11:52;6.80;99.90
60723;DHT22;46574;52.818;6.516;2023-11-18T14:14:21;6.90;99.90
60723;DHT22;46574;52.818;6.516;2023-11-18T14:16:47;6.80;99.90
60723;DHT22;46574;52.818;6.516;2023-11-18T14:19:12;6.80;99.90
60723;DHT22;46574;52.818;6.516;2023-11-18T14:21:39;6.90;99.90
60723;DHT22;46574;52.818;6.516;2023-11-18T14:24:10;6.80;99.90
60723;DHT22;46574;52.818;6.516;2023-11-18T14:26:37;6.80;99.90
60723;DHT22;46574;52.818;6.516;2023-11-18T14:29:05;6.80;99.90
60723;DHT22;46574;52.818;6.516;2023-11-18T14:31:32;6.80;99.90
60723;DHT22;46574;52.818;6.516;2023-11-18T14:33:59;6.80;99.90
60723;DHT22;46574;52.818;6.516;2023-11-18T14:36:26;6.80;99.90
60723;DHT22;46574;52.818;6.516;2023-11-18T14:38:52;6.80;99.90
60723;DHT22;46574;52.818;6.516;2023-11-18T14:41:18;6.90;99.90
60723;DHT22;46574;52.818;6.516;2023-11-18T14:43:46;6.80;99.90
60723;DHT22;46574;52.818;6.516;2023-11-18T14:46:11;6.80;99.90
60723;DHT22;46574;52.818;6.516;2023-11-18T14:48:38;6.80;99.90
60723;DHT22;46574;52.818;6.516;2023-11-18T14:51:04;6.90;99.90
60723;DHT22;46574;52.818;6.516;2023-11-18T14:53:30;6.90;99.90
60723;DHT22;46574;52.818;6.516;2023-11-18T14:55:56;6.90;99.90
60723;DHT22;46574;52.818;6.516;2023-11-18T14:58:23;6.90;99.90
60723;DHT22;46574;52.818;6.516;2023-11-18T15:00:49;6.90;99.90
60723;DHT22;46574;52.818;6.516;2023-11-18T15:03:14;6.80;99.90
60723;DHT22;46574;52.818;6.516;2023-11-18T15:05:41;6.90;99.90
60723;DHT22;46574;52.818;6.516;2023-11-18T15:08:09;6.90;99.90
60723;DHT22;46574;52.818;6.516;2023-11-18T15:10:35;6.90;99.90
60723;DHT22;46574;52.818;6.516;2023-11-18T15:13:03;6.90;99.90
60723;DHT22;46574;52.818;6.516;2023-11-18T15:15:30;6.90;99.90
60723;DHT22;46574;52.818;6.516;2023-11-18T15:18:01;6.90;99.90
60723;DHT22;46574;52.818;6.516;2023-11-18T15:20:29;6.90;99.90
60723;DHT22;46574;52.818;6.516;2023-11-18T15:22:55;6.90;99.90
60723;DHT22;46574;52.818;6.516;2023-11-18T15:25:21;6.90;99.90
60723;DHT22;46574;52.818;6.516;2023-11-18T15:27:47;6.90;99.90
60723;DHT22;46574;52.818;6.516;2023-11-18T15:30:15;7.00;99.90
60723;DHT22;46574;52.818;6.516;2023-11-18T15:32:43;7.00;99.90
60723;DHT22;46574;52.818;6.516;2023-11-18T15:35:10;7.00;99.90
60723;DHT22;46574;52.818;6.516;2023-11-18T15:37:41;7.00;99.90
60723;DHT22;46574;52.818;6.516;2023-11-18T15:40:08;7.00;99.90
60723;DHT22;46574;52.818;6.516;2023-11-18T15:42:43;7.00;99.90
60723;DHT22;46574;52.818;6.516;2023-11-18T15:45:10;7.00;99.90
60723;DHT22;46574;52.818;6.516;2023-11-18T15:47:40;7.00;99.90
60723;DHT22;46574;52.818;6.516;2023-11-18T15:50:11;7.00;99.90
60723;DHT22;46574;52.818;6.516;2023-11-18T15:52:50;7.00;99.90
60723;DHT22;46574;52.818;6.516;2023-11-18T15:55:19;7.00;99.90
60723;DHT22;46574;52.818;6.516;2023-11-18T15:57:48;7.00;99.90
60723;DHT22;46574;52.818;6.516;2023-11-18T16:00:18;7.00;99.90
60723;DHT22;46574;52.818;6.516;2023-11-18T16:02:56;7.00;99.90
60723;DHT22;46574;52.818;6.516;2023-11-18T16:05:24;7.00;99.90
60723;DHT22;46574;52.818;6.516;2023-11-18T16:07:51;7.10;99.90
60723;DHT22;46574;52.818;6.516;2023-11-18T16:10:18;7.10;99.90
60723;DHT22;46574;52.818;6.516;2023-11-18T16:12:54;7.10;99.90